createdAt,value
2017-12-24T00:00:05.187Z,6.20
2017-12-24T00:01:05.178Z,6.14
2017-12-24T00:02:05.163Z,6.24
2017-12-24T00:03:05.144Z,6.08
2017-12-24T00:04:05.130Z,6.19
2017-12-24T00:05:05.115Z,6.10
2017-12-24T00:06:05.100Z,6.10
2017-12-24T00:07:05.091Z,6.05
2017-12-24T00:08:05.076Z,6.06
2017-12-24T00:09:05.055Z,6.05
2017-12-24T00:10:05.046Z,6.14
2017-12-24T00:11:05.027Z,6.19
2017-12-24T00:12:05.023Z,6.03
2017-12-24T00:13:04.997Z,6.13
2017-12-24T00:14:04.986Z,5.95
2017-12-24T00:15:04.972Z,6.17
2017-12-24T00:16:04.958Z,6.30
2017-12-24T00:17:04.940Z,6.19
2017-12-24T00:18:04.924Z,6.25
2017-12-24T00:19:04.911Z,6.30
2017-12-24T00:20:04.896Z,6.25
2017-12-24T00:21:04.882Z,6.35
2017-12-24T00:22:04.868Z,6.25
2017-12-24T00:23:04.850Z,6.32
2017-12-24T00:24:04.839Z,6.27
2017-12-24T00:25:04.825Z,6.16
2017-12-24T00:26:04.808Z,6.16
2017-12-24T00:27:04.792Z,6.17
2017-12-24T00:28:04.780Z,6.08
2017-12-24T00:29:04.771Z,6.10
2017-12-24T00:30:04.758Z,5.96
2017-12-24T00:31:04.741Z,5.95
2017-12-24T00:32:04.720Z,6.06
2017-12-24T00:33:04.702Z,6.10
2017-12-24T00:34:04.692Z,5.96
2017-12-24T00:35:04.675Z,6.08
2017-12-24T00:36:04.661Z,6.01
2017-12-24T00:37:04.653Z,5.99
2017-12-24T00:38:04.648Z,5.84
2017-12-24T00:39:04.616Z,5.99
2017-12-24T00:40:04.609Z,5.93
2017-12-24T00:41:04.588Z,5.87
2017-12-24T00:42:04.579Z,5.87
2017-12-24T00:43:04.564Z,5.85
2017-12-24T00:44:04.543Z,5.83
2017-12-24T00:45:04.537Z,5.93
2017-12-24T00:46:04.513Z,5.81
2017-12-24T00:47:04.500Z,5.81
2017-12-24T00:48:04.488Z,5.83
2017-12-24T00:49:04.475Z,5.74
2017-12-24T00:50:04.457Z,5.74
2017-12-24T00:51:04.446Z,5.75
2017-12-24T00:52:04.425Z,5.84
2017-12-24T00:53:04.411Z,5.80
2017-12-24T00:54:04.395Z,5.74
2017-12-24T00:55:04.382Z,5.69
2017-12-24T00:56:04.369Z,5.75
2017-12-24T00:57:04.351Z,5.70
2017-12-24T00:58:04.342Z,5.67
2017-12-24T00:59:04.329Z,5.65
2017-12-24T01:00:04.313Z,5.73
2017-12-24T01:01:04.294Z,5.62
2017-12-24T01:02:04.282Z,5.60
2017-12-24T01:03:04.267Z,5.66
2017-12-24T01:04:04.251Z,5.63
2017-12-24T01:05:04.233Z,5.66
2017-12-24T01:06:04.218Z,5.75
2017-12-24T01:07:04.206Z,5.66
2017-12-24T01:08:04.188Z,5.78
2017-12-24T01:09:04.175Z,5.65
2017-12-24T01:10:04.159Z,5.74
2017-12-24T01:11:04.145Z,5.65
2017-12-24T01:12:04.132Z,5.70
2017-12-24T01:13:04.116Z,5.75
2017-12-24T01:14:04.105Z,5.80
2017-12-24T01:15:04.086Z,5.81
2017-12-24T01:16:04.083Z,5.67
2017-12-24T01:17:04.059Z,5.60
2017-12-24T01:18:04.042Z,5.65
2017-12-24T01:19:04.032Z,5.59
2017-12-24T01:20:04.013Z,5.52
2017-12-24T01:21:03.996Z,5.62
2017-12-24T01:22:03.981Z,5.60
2017-12-24T01:23:03.967Z,5.51
2017-12-24T01:24:03.953Z,5.56
2017-12-24T01:25:03.940Z,5.48
2017-12-24T01:26:03.927Z,5.48
2017-12-24T01:27:03.908Z,5.47
2017-12-24T01:28:03.894Z,5.49
2017-12-24T01:29:03.878Z,5.55
2017-12-24T01:30:03.861Z,5.47
2017-12-24T01:31:03.847Z,5.55
2017-12-24T01:32:03.833Z,5.52
2017-12-24T01:33:03.823Z,5.47
2017-12-24T01:34:03.813Z,5.48
2017-12-24T01:35:03.792Z,5.49
2017-12-24T01:36:03.775Z,5.52
2017-12-24T01:37:03.758Z,5.44
2017-12-24T01:38:03.742Z,5.49
2017-12-24T01:39:03.731Z,5.55
2017-12-24T01:40:03.712Z,5.56
2017-12-24T01:41:03.702Z,5.60
2017-12-24T01:42:03.685Z,5.59
2017-12-24T01:43:03.672Z,5.58
2017-12-24T01:44:03.655Z,5.56
2017-12-24T01:45:03.636Z,5.56
2017-12-24T01:46:03.629Z,5.48
2017-12-24T01:47:03.608Z,5.48
2017-12-24T01:48:03.593Z,5.45
2017-12-24T01:49:03.585Z,5.42
2017-12-24T01:50:03.565Z,5.44
2017-12-24T01:51:03.548Z,5.47
2017-12-24T01:52:03.533Z,5.41
2017-12-24T01:53:03.517Z,5.44
2017-12-24T01:54:03.501Z,5.37
2017-12-24T01:55:03.492Z,5.37
2017-12-24T01:56:03.475Z,5.30
2017-12-24T01:57:03.456Z,5.38
2017-12-24T01:58:03.447Z,5.38
2017-12-24T01:59:03.426Z,5.29
2017-12-24T02:00:03.416Z,5.41
2017-12-24T02:01:03.399Z,5.38
2017-12-24T02:02:03.390Z,5.40
2017-12-24T02:03:03.368Z,5.37
2017-12-24T02:04:03.354Z,5.38
2017-12-24T02:05:03.337Z,5.47
2017-12-24T02:06:03.329Z,5.42
2017-12-24T02:07:03.307Z,5.48
2017-12-24T02:08:03.293Z,5.45
2017-12-24T02:09:03.276Z,5.51
2017-12-24T02:10:03.275Z,5.44
2017-12-24T02:11:03.255Z,5.45
2017-12-24T02:12:03.234Z,5.51
2017-12-24T02:13:03.219Z,5.48
2017-12-24T02:14:03.205Z,5.42
2017-12-24T02:15:03.192Z,5.37
2017-12-24T02:16:03.174Z,5.44
2017-12-24T02:17:03.160Z,5.41
2017-12-24T02:18:03.142Z,5.37
2017-12-24T02:19:03.126Z,5.47
2017-12-24T02:20:03.144Z,5.47
2017-12-24T02:21:03.102Z,5.47
2017-12-24T02:22:03.081Z,5.45
2017-12-24T02:23:03.068Z,5.44
2017-12-24T02:24:03.058Z,5.42
2017-12-24T02:25:03.041Z,5.40
2017-12-24T02:26:03.020Z,5.37
2017-12-24T02:27:03.006Z,5.35
2017-12-24T02:28:02.994Z,5.37
2017-12-24T02:29:02.975Z,5.32
2017-12-24T02:30:02.967Z,5.44
2017-12-24T02:31:02.947Z,5.49
2017-12-24T02:32:02.939Z,5.49
2017-12-24T02:33:02.915Z,5.45
2017-12-24T02:34:02.909Z,5.51
2017-12-24T02:35:02.886Z,5.48
2017-12-24T02:36:02.871Z,5.40
2017-12-24T02:37:02.860Z,5.40
2017-12-24T02:38:02.844Z,5.37
2017-12-24T02:39:02.833Z,5.42
2017-12-24T02:40:02.812Z,5.45
2017-12-24T02:41:02.802Z,5.35
2017-12-24T02:42:02.782Z,5.38
2017-12-24T02:43:02.767Z,5.32
2017-12-24T02:44:02.751Z,5.40
2017-12-24T02:45:02.737Z,5.33
2017-12-24T02:46:02.721Z,5.38
2017-12-24T02:47:02.712Z,5.38
2017-12-24T02:48:02.693Z,5.29
2017-12-24T02:49:02.675Z,5.33
2017-12-24T02:50:02.661Z,5.38
2017-12-24T02:51:02.651Z,5.35
2017-12-24T02:52:02.632Z,5.41
2017-12-24T02:53:02.615Z,5.45
2017-12-24T02:54:02.601Z,5.49
2017-12-24T02:55:02.586Z,5.49
2017-12-24T02:56:02.569Z,5.48
2017-12-24T02:57:02.555Z,5.45
2017-12-24T02:58:02.541Z,5.47
2017-12-24T02:59:02.525Z,5.41
2017-12-24T03:00:02.511Z,5.35
2017-12-24T03:01:02.494Z,5.41
2017-12-24T03:02:02.478Z,5.40
2017-12-24T03:03:02.472Z,5.42
2017-12-24T03:04:02.449Z,5.45
2017-12-24T03:05:02.434Z,5.58
2017-12-24T03:06:02.419Z,5.55
2017-12-24T03:07:02.412Z,5.63
2017-12-24T03:08:02.394Z,5.58
2017-12-24T03:09:02.372Z,5.65
2017-12-24T03:10:02.359Z,5.60
2017-12-24T03:11:02.346Z,5.66
2017-12-24T03:12:02.328Z,5.59
2017-12-24T03:13:02.316Z,5.56
2017-12-24T03:14:02.304Z,5.56
2017-12-24T03:15:02.284Z,5.59
2017-12-24T03:16:02.267Z,5.56
2017-12-24T03:17:02.253Z,5.47
2017-12-24T03:18:02.241Z,5.45
2017-12-24T03:19:02.227Z,5.47
2017-12-24T03:20:02.208Z,5.35
2017-12-24T03:21:02.204Z,5.49
2017-12-24T03:22:02.181Z,5.47
2017-12-24T03:23:02.165Z,5.47
2017-12-24T03:24:02.152Z,5.55
2017-12-24T03:25:02.131Z,5.52
2017-12-24T03:26:02.121Z,5.51
2017-12-24T03:27:02.100Z,5.52
2017-12-24T03:28:02.091Z,5.55
2017-12-24T03:29:02.072Z,5.56
2017-12-24T03:30:02.058Z,5.56
2017-12-24T03:31:02.040Z,5.59
2017-12-24T03:32:02.026Z,5.66
2017-12-24T03:33:02.014Z,5.63
2017-12-24T03:34:01.994Z,5.66
2017-12-24T03:35:01.989Z,5.59
2017-12-24T03:36:01.965Z,5.52
2017-12-24T03:37:01.957Z,5.44
2017-12-24T03:38:01.934Z,5.51
2017-12-24T03:39:01.921Z,5.48
2017-12-24T03:40:01.905Z,5.40
2017-12-24T03:41:01.898Z,5.45
2017-12-24T03:42:01.879Z,5.52
2017-12-24T03:43:01.866Z,5.47
2017-12-24T03:44:01.849Z,5.42
2017-12-24T03:45:01.827Z,5.47
2017-12-24T03:46:01.815Z,5.42
2017-12-24T03:47:01.798Z,5.44
2017-12-24T03:48:01.783Z,5.45
2017-12-24T03:49:01.768Z,5.44
2017-12-24T03:50:01.752Z,5.44
2017-12-24T03:51:01.738Z,5.38
2017-12-24T03:52:01.728Z,5.42
2017-12-24T03:53:01.707Z,5.45
2017-12-24T03:54:01.697Z,5.52
2017-12-24T03:55:01.677Z,5.49
2017-12-24T03:56:01.668Z,5.55
2017-12-24T03:57:01.646Z,5.56
2017-12-24T03:58:01.634Z,5.49
2017-12-24T03:59:01.618Z,5.42
2017-12-24T04:00:01.602Z,5.45
2017-12-24T04:01:01.586Z,5.47
2017-12-24T04:02:01.570Z,5.45
2017-12-24T04:03:01.556Z,5.48
2017-12-24T04:04:01.542Z,5.48
2017-12-24T04:05:01.527Z,5.40
2017-12-24T04:06:01.517Z,5.45
2017-12-24T04:07:01.497Z,5.44
2017-12-24T04:08:01.480Z,5.48
2017-12-24T04:09:01.467Z,5.41
2017-12-24T04:10:01.451Z,5.38
2017-12-24T04:11:01.439Z,5.29
2017-12-24T04:12:01.421Z,5.47
2017-12-24T04:13:01.410Z,5.41
2017-12-24T04:14:01.395Z,5.42
2017-12-24T04:15:01.375Z,5.47
2017-12-24T04:16:01.367Z,5.44
2017-12-24T04:17:01.344Z,5.44
2017-12-24T04:18:01.337Z,5.47
2017-12-24T04:19:01.312Z,5.42
2017-12-24T04:20:01.307Z,5.48
2017-12-24T04:21:01.290Z,5.44
2017-12-24T04:22:01.272Z,5.38
2017-12-24T04:23:01.252Z,5.35
2017-12-24T04:24:01.282Z,5.32
2017-12-24T04:25:01.227Z,5.40
2017-12-24T04:26:01.209Z,5.32
2017-12-24T04:27:01.192Z,5.29
2017-12-24T04:28:01.182Z,5.33
2017-12-24T04:29:01.163Z,5.29
2017-12-24T04:30:01.146Z,5.33
2017-12-24T04:31:01.132Z,5.32
2017-12-24T04:32:01.122Z,5.41
2017-12-24T04:33:01.101Z,5.35
2017-12-24T04:34:01.086Z,5.30
2017-12-24T04:35:01.071Z,5.23
2017-12-24T04:36:01.056Z,5.26
2017-12-24T04:37:01.050Z,5.24
2017-12-24T04:38:01.031Z,5.30
2017-12-24T04:39:01.009Z,5.30
2017-12-24T04:40:00.997Z,5.29
2017-12-24T04:41:01.016Z,5.24
2017-12-24T04:42:00.971Z,5.33
2017-12-24T04:43:00.950Z,5.30
2017-12-24T04:44:00.935Z,5.41
2017-12-24T04:45:00.919Z,5.37
2017-12-24T04:46:00.905Z,5.30
2017-12-24T04:47:00.888Z,5.29
2017-12-24T04:48:00.874Z,5.29
2017-12-24T04:49:00.858Z,5.35
2017-12-24T04:50:00.845Z,5.47
2017-12-24T04:51:00.829Z,5.37
2017-12-24T04:52:00.819Z,5.42
2017-12-24T04:53:00.806Z,5.49
2017-12-24T04:54:00.789Z,5.42
2017-12-24T04:55:00.769Z,5.30
2017-12-24T04:56:00.753Z,5.29
2017-12-24T04:57:00.738Z,5.35
2017-12-24T04:58:00.720Z,5.38
2017-12-24T04:59:00.711Z,5.32
2017-12-24T05:00:00.699Z,5.35
2017-12-24T05:01:00.677Z,5.35
2017-12-24T05:02:00.659Z,5.20
2017-12-24T05:03:00.643Z,5.29
2017-12-24T05:04:00.630Z,5.32
2017-12-24T05:05:00.616Z,5.37
2017-12-24T05:06:00.599Z,5.29
2017-12-24T05:07:00.587Z,5.20
2017-12-24T05:08:00.576Z,5.20
2017-12-24T05:09:00.556Z,5.20
2017-12-24T05:10:00.546Z,5.19
2017-12-24T05:11:00.526Z,5.22
2017-12-24T05:12:00.506Z,5.26
2017-12-24T05:13:00.492Z,5.17
2017-12-24T05:14:00.484Z,5.19
2017-12-24T05:15:00.467Z,5.22
2017-12-24T05:16:00.445Z,5.19
2017-12-24T05:17:00.431Z,5.19
2017-12-24T05:18:00.419Z,5.22
2017-12-24T05:19:00.401Z,5.19
2017-12-24T05:20:00.392Z,5.23
2017-12-24T05:21:00.370Z,5.20
2017-12-24T05:22:00.361Z,5.24
2017-12-24T05:23:00.339Z,5.19
2017-12-24T05:24:00.325Z,5.19
2017-12-24T05:25:00.311Z,5.24
2017-12-24T05:26:00.297Z,5.22
2017-12-24T05:27:00.279Z,5.26
2017-12-24T05:28:00.269Z,5.23
2017-12-24T05:29:00.253Z,5.22
2017-12-24T05:30:00.232Z,5.24
2017-12-24T05:31:00.217Z,5.19
2017-12-24T05:32:00.201Z,5.19
2017-12-24T05:33:00.187Z,5.22
2017-12-24T05:34:00.171Z,5.22
2017-12-24T05:35:00.160Z,5.11
2017-12-24T05:36:00.143Z,5.19
2017-12-24T05:37:00.130Z,5.20
2017-12-24T05:38:00.110Z,5.20
2017-12-24T05:39:00.100Z,5.15
2017-12-24T05:40:00.080Z,5.22
2017-12-24T05:41:00.062Z,5.22
2017-12-24T05:42:00.050Z,5.29
2017-12-24T05:43:00.036Z,5.23
2017-12-24T05:44:00.021Z,5.20
2017-12-24T05:45:00.006Z,5.22
2017-12-24T05:45:59.987Z,5.20
2017-12-24T05:46:59.980Z,5.19
2017-12-24T05:47:59.957Z,5.14
2017-12-24T05:48:59.945Z,5.14
2017-12-24T05:49:59.925Z,5.12
2017-12-24T05:50:59.911Z,5.05
2017-12-24T05:51:59.898Z,5.12
2017-12-24T05:52:59.878Z,5.09
2017-12-24T05:53:59.863Z,5.06
2017-12-24T05:54:59.849Z,5.08
2017-12-24T05:55:59.835Z,5.11
2017-12-24T05:56:59.817Z,5.06
2017-12-24T05:57:59.803Z,5.22
2017-12-24T05:58:59.793Z,5.14
2017-12-24T05:59:59.772Z,5.11
2017-12-24T06:00:59.758Z,5.11
2017-12-24T06:01:59.742Z,5.08
2017-12-24T06:02:59.727Z,5.05
2017-12-24T06:03:59.713Z,5.09
2017-12-24T06:04:59.695Z,5.14
2017-12-24T06:05:59.680Z,5.12
2017-12-24T06:06:59.666Z,5.12
2017-12-24T06:07:59.649Z,5.15
2017-12-24T06:08:59.635Z,5.15
2017-12-24T06:09:59.620Z,5.14
2017-12-24T06:10:59.604Z,5.05
2017-12-24T06:11:59.595Z,5.14
2017-12-24T06:12:59.575Z,5.19
2017-12-24T06:13:59.560Z,5.17
2017-12-24T06:14:59.542Z,5.15
2017-12-24T06:15:59.526Z,5.22
2017-12-24T06:16:59.512Z,5.22
2017-12-24T06:17:59.497Z,5.23
2017-12-24T06:18:59.486Z,5.15
2017-12-24T06:19:59.464Z,5.11
2017-12-24T06:20:59.451Z,5.19
2017-12-24T06:21:59.432Z,5.22
2017-12-24T06:22:59.421Z,5.17
2017-12-24T06:23:59.404Z,5.17
2017-12-24T06:24:59.387Z,5.23
2017-12-24T06:25:59.375Z,5.29
2017-12-24T06:26:59.357Z,5.26
2017-12-24T06:27:59.342Z,5.26
2017-12-24T06:28:59.326Z,5.22
2017-12-24T06:29:59.311Z,5.14
2017-12-24T06:30:59.295Z,5.19
2017-12-24T06:31:59.279Z,5.22
2017-12-24T06:32:59.265Z,5.15
2017-12-24T06:33:59.251Z,5.24
2017-12-24T06:34:59.233Z,5.26
2017-12-24T06:35:59.219Z,5.14
2017-12-24T06:36:59.200Z,5.11
2017-12-24T06:37:59.186Z,5.22
2017-12-24T06:38:59.171Z,5.04
2017-12-24T06:39:59.157Z,5.04
2017-12-24T06:40:59.140Z,5.01
2017-12-24T06:41:59.125Z,5.05
2017-12-24T06:42:59.115Z,4.99
2017-12-24T06:43:59.113Z,5.01
2017-12-24T06:44:59.086Z,4.93
2017-12-24T06:45:59.070Z,5.05
2017-12-24T06:46:59.059Z,4.97
2017-12-24T06:47:59.041Z,5.04
2017-12-24T06:48:59.017Z,5.06
2017-12-24T06:49:59.002Z,5.05
2017-12-24T06:50:58.989Z,5.11
2017-12-24T06:51:58.978Z,5.09
2017-12-24T06:52:58.959Z,5.06
2017-12-24T06:53:58.937Z,4.99
2017-12-24T06:54:58.929Z,5.08
2017-12-24T06:55:58.930Z,5.04
2017-12-24T06:56:58.904Z,5.04
2017-12-24T06:57:58.884Z,5.02
2017-12-24T06:58:58.863Z,5.06
2017-12-24T06:59:58.857Z,4.93
2017-12-24T07:00:58.837Z,4.97
2017-12-24T07:01:58.824Z,5.01
2017-12-24T07:02:58.803Z,4.93
2017-12-24T07:03:58.786Z,5.06
2017-12-24T07:04:58.774Z,4.99
2017-12-24T07:05:58.753Z,5.05
2017-12-24T07:06:58.737Z,5.01
2017-12-24T07:07:58.726Z,5.02
2017-12-24T07:08:58.705Z,5.08
2017-12-24T07:09:58.688Z,5.01
2017-12-24T07:10:58.682Z,4.96
2017-12-24T07:11:58.666Z,5.01
2017-12-24T07:12:58.642Z,4.93
2017-12-24T07:13:58.626Z,4.94
2017-12-24T07:14:58.616Z,4.91
2017-12-24T07:15:58.595Z,4.94
2017-12-24T07:16:58.582Z,4.99
2017-12-24T07:17:58.563Z,4.93
2017-12-24T07:18:58.554Z,5.06
2017-12-24T07:19:58.538Z,4.99
2017-12-24T07:20:58.522Z,5.06
2017-12-24T07:21:58.512Z,5.06
2017-12-24T07:22:58.484Z,5.14
2017-12-24T07:23:58.470Z,5.09
2017-12-24T07:24:58.459Z,5.09
2017-12-24T07:25:58.443Z,5.05
2017-12-24T07:26:58.421Z,4.96
2017-12-24T07:27:58.407Z,5.04
2017-12-24T07:28:58.392Z,5.06
2017-12-24T07:29:58.376Z,4.90
2017-12-24T07:30:58.361Z,4.99
2017-12-24T07:31:58.351Z,4.96
2017-12-24T07:32:58.335Z,5.04
2017-12-24T07:33:58.318Z,4.99
2017-12-24T07:34:58.306Z,4.93
2017-12-24T07:35:58.283Z,4.96
2017-12-24T07:36:58.266Z,4.96
2017-12-24T07:37:58.251Z,4.88
2017-12-24T07:38:58.237Z,4.96
2017-12-24T07:39:58.226Z,4.93
2017-12-24T07:40:58.210Z,4.99
2017-12-24T07:41:58.219Z,5.02
2017-12-24T07:42:58.216Z,5.08
2017-12-24T07:43:58.171Z,5.08
2017-12-24T07:44:58.142Z,4.93
2017-12-24T07:45:58.127Z,5.02
2017-12-24T07:46:58.113Z,5.04
2017-12-24T07:47:58.098Z,5.05
2017-12-24T07:48:58.081Z,5.05
2017-12-24T07:49:58.065Z,5.08
2017-12-24T07:50:58.054Z,5.05
2017-12-24T07:51:58.040Z,5.08
2017-12-24T07:52:58.021Z,5.08
2017-12-24T07:53:58.003Z,5.17
2017-12-24T07:54:57.994Z,5.17
2017-12-24T07:55:57.974Z,5.09
2017-12-24T07:56:57.957Z,5.22
2017-12-24T07:57:57.948Z,5.11
2017-12-24T07:58:57.933Z,5.19
2017-12-24T07:59:57.912Z,5.20
2017-12-24T08:00:57.895Z,5.20
2017-12-24T08:01:57.886Z,5.23
2017-12-24T08:02:57.870Z,5.26
2017-12-24T08:03:57.852Z,5.19
2017-12-24T08:04:57.837Z,5.19
2017-12-24T08:05:57.820Z,5.23
2017-12-24T08:06:57.804Z,5.22
2017-12-24T08:07:57.802Z,5.29
2017-12-24T08:08:57.775Z,5.38
2017-12-24T08:09:57.762Z,5.29
2017-12-24T08:10:57.744Z,5.30
2017-12-24T08:11:57.732Z,5.30
2017-12-24T08:12:57.719Z,5.38
2017-12-24T08:13:57.696Z,5.45
2017-12-24T08:14:57.682Z,5.33
2017-12-24T08:15:57.675Z,5.37
2017-12-24T08:16:57.649Z,5.30
2017-12-24T08:17:57.639Z,5.33
2017-12-24T08:18:57.625Z,5.42
2017-12-24T08:19:57.602Z,5.30
2017-12-24T08:20:57.585Z,5.41
2017-12-24T08:21:57.576Z,5.33
2017-12-24T08:22:57.556Z,5.40
2017-12-24T08:23:57.548Z,5.35
2017-12-24T08:24:57.530Z,5.42
2017-12-24T08:25:57.512Z,5.32
2017-12-24T08:26:57.495Z,5.41
2017-12-24T08:27:57.479Z,5.38
2017-12-24T08:28:57.465Z,5.35
2017-12-24T08:29:57.445Z,5.41
2017-12-24T08:30:57.435Z,5.41
2017-12-24T08:31:57.419Z,5.35
2017-12-24T08:32:57.400Z,5.40
2017-12-24T08:33:57.387Z,5.40
2017-12-24T08:34:57.375Z,5.42
2017-12-24T08:35:57.355Z,5.29
2017-12-24T08:36:57.341Z,5.23
2017-12-24T08:37:57.323Z,5.33
2017-12-24T08:38:57.307Z,5.23
2017-12-24T08:39:57.297Z,5.27
2017-12-24T08:40:57.276Z,5.30
2017-12-24T08:41:57.263Z,5.20
2017-12-24T08:42:57.251Z,5.22
2017-12-24T08:43:57.231Z,5.17
2017-12-24T08:44:57.215Z,5.19
2017-12-24T08:45:57.198Z,5.20
2017-12-24T08:46:57.184Z,5.29
2017-12-24T08:47:57.174Z,5.23
2017-12-24T08:48:57.152Z,5.22
2017-12-24T08:49:57.137Z,5.27
2017-12-24T08:50:57.129Z,5.27
2017-12-24T08:51:57.108Z,5.29
2017-12-24T08:52:57.090Z,5.37
2017-12-24T08:53:57.077Z,5.29
2017-12-24T08:54:57.060Z,5.35
2017-12-24T08:55:57.045Z,5.41
2017-12-24T08:56:57.038Z,5.38
2017-12-24T08:57:57.015Z,5.37
2017-12-24T08:58:57.005Z,5.35
2017-12-24T08:59:56.984Z,5.37
2017-12-24T09:00:56.972Z,5.41
2017-12-24T09:01:56.958Z,5.32
2017-12-24T09:02:56.939Z,5.40
2017-12-24T09:03:56.922Z,5.47
2017-12-24T09:04:56.911Z,5.44
2017-12-24T09:05:56.891Z,5.59
2017-12-24T09:06:56.884Z,5.55
2017-12-24T09:07:56.861Z,5.51
2017-12-24T09:08:56.846Z,5.58
2017-12-24T09:09:56.853Z,5.56
2017-12-24T09:10:56.815Z,5.55
2017-12-24T09:11:56.804Z,5.47
2017-12-24T09:12:56.786Z,5.62
2017-12-24T09:13:56.775Z,5.56
2017-12-24T09:14:56.760Z,5.60
2017-12-24T09:15:56.743Z,5.55
2017-12-24T09:16:56.722Z,5.48
2017-12-24T09:17:56.749Z,5.52
2017-12-24T09:18:56.692Z,5.49
2017-12-24T09:19:56.676Z,5.41
2017-12-24T09:20:56.660Z,5.38
2017-12-24T09:21:56.644Z,5.44
2017-12-24T09:22:56.633Z,5.38
2017-12-24T09:23:56.621Z,5.44
2017-12-24T09:24:56.600Z,5.44
2017-12-24T09:25:56.587Z,5.42
2017-12-24T09:26:56.569Z,5.38
2017-12-24T09:27:56.552Z,5.48
2017-12-24T09:28:56.534Z,5.41
2017-12-24T09:29:56.521Z,5.45
2017-12-24T09:30:56.505Z,5.44
2017-12-24T09:31:56.492Z,5.47
2017-12-24T09:32:56.482Z,5.49
2017-12-24T09:33:56.462Z,5.48
2017-12-24T09:34:56.445Z,5.47
2017-12-24T09:35:56.432Z,5.45
2017-12-24T09:36:56.412Z,5.41
2017-12-24T09:37:56.399Z,5.41
2017-12-24T09:38:56.388Z,5.44
2017-12-24T09:39:56.366Z,5.35
2017-12-24T09:40:56.357Z,5.30
2017-12-24T09:41:56.338Z,5.40
2017-12-24T09:42:56.326Z,5.47
2017-12-24T09:43:56.304Z,5.38
2017-12-24T09:44:56.294Z,5.44
2017-12-24T09:45:56.277Z,5.27
2017-12-24T09:46:56.261Z,5.35
2017-12-24T09:47:56.246Z,5.48
2017-12-24T09:48:56.232Z,5.42
2017-12-24T09:49:56.214Z,5.45
2017-12-24T09:50:56.199Z,5.47
2017-12-24T09:51:56.184Z,5.44
2017-12-24T09:52:56.174Z,5.37
2017-12-24T09:53:56.153Z,5.42
2017-12-24T09:54:56.138Z,5.37
2017-12-24T09:55:56.127Z,5.38
2017-12-24T09:56:56.106Z,5.47
2017-12-24T09:57:56.090Z,5.42
2017-12-24T09:58:56.083Z,5.45
2017-12-24T09:59:56.060Z,5.49
2017-12-24T10:00:56.048Z,5.42
2017-12-24T10:01:56.031Z,5.45
2017-12-24T10:02:56.015Z,5.49
2017-12-24T10:03:56.000Z,5.51
2017-12-24T10:04:55.991Z,5.47
2017-12-24T10:05:55.974Z,5.58
2017-12-24T10:06:55.953Z,5.51
2017-12-24T10:07:55.939Z,5.56
2017-12-24T10:08:55.929Z,5.49
2017-12-24T10:09:55.908Z,5.44
2017-12-24T10:10:55.894Z,5.62
2017-12-24T10:11:55.877Z,5.63
2017-12-24T10:12:55.873Z,5.66
2017-12-24T10:13:55.852Z,5.65
2017-12-24T10:14:55.833Z,5.78
2017-12-24T10:15:55.816Z,5.78
2017-12-24T10:16:55.806Z,5.78
2017-12-24T10:17:55.789Z,5.75
2017-12-24T10:18:55.773Z,5.75
2017-12-24T10:19:55.758Z,5.70
2017-12-24T10:20:55.748Z,5.78
2017-12-24T10:21:55.733Z,5.87
2017-12-24T10:22:55.716Z,5.85
2017-12-24T10:23:55.695Z,5.85
2017-12-24T10:24:55.680Z,5.78
2017-12-24T10:25:55.665Z,5.80
2017-12-24T10:26:55.651Z,5.75
2017-12-24T10:27:55.635Z,5.73
2017-12-24T10:28:55.624Z,5.88
2017-12-24T10:29:55.605Z,5.90
2017-12-24T10:30:55.593Z,5.88
2017-12-24T10:31:55.578Z,5.90
2017-12-24T10:32:55.559Z,5.92
2017-12-24T10:33:55.545Z,5.90
2017-12-24T10:34:55.538Z,5.90
2017-12-24T10:35:55.518Z,5.85
2017-12-24T10:36:55.507Z,5.92
2017-12-24T10:37:55.489Z,5.88
2017-12-24T10:38:55.469Z,5.93
2017-12-24T10:39:55.457Z,5.87
2017-12-24T10:40:55.445Z,5.81
2017-12-24T10:41:55.424Z,5.77
2017-12-24T10:42:55.411Z,5.74
2017-12-24T10:43:55.396Z,5.67
2017-12-24T10:44:55.380Z,5.75
2017-12-24T10:45:55.365Z,5.83
2017-12-24T10:46:55.383Z,5.74
2017-12-24T10:47:55.335Z,5.81
2017-12-24T10:48:55.326Z,5.87
2017-12-24T10:49:55.305Z,5.87
2017-12-24T10:50:55.293Z,5.77
2017-12-24T10:51:55.278Z,5.75
2017-12-24T10:52:55.263Z,5.74
2017-12-24T10:53:55.247Z,5.67
2017-12-24T10:54:55.232Z,5.62
2017-12-24T10:55:55.217Z,5.62
2017-12-24T10:56:55.202Z,5.59
2017-12-24T10:57:55.184Z,5.62
2017-12-24T10:58:55.176Z,5.67
2017-12-24T10:59:55.161Z,5.63
2017-12-24T11:00:55.141Z,5.58
2017-12-24T11:01:55.162Z,5.58
2017-12-24T11:02:55.117Z,5.63
2017-12-24T11:03:55.094Z,5.62
2017-12-24T11:04:55.080Z,5.75
2017-12-24T11:05:55.067Z,5.73
2017-12-24T11:06:55.055Z,5.60
2017-12-24T11:07:55.037Z,5.58
2017-12-24T11:08:55.030Z,5.62
2017-12-24T11:09:55.004Z,5.60
2017-12-24T11:10:54.990Z,5.62
2017-12-24T11:11:54.980Z,5.66
2017-12-24T11:12:54.960Z,5.59
2017-12-24T11:13:54.944Z,5.56
2017-12-24T11:14:54.928Z,5.55
2017-12-24T11:15:54.918Z,5.59
2017-12-24T11:16:54.900Z,5.56
2017-12-24T11:17:54.892Z,5.49
2017-12-24T11:18:54.869Z,5.47
2017-12-24T11:19:54.863Z,5.45
2017-12-24T11:20:54.839Z,5.44
2017-12-24T11:21:54.825Z,5.40
2017-12-24T11:22:54.808Z,5.56
2017-12-24T11:23:54.793Z,5.51
2017-12-24T11:24:54.782Z,5.56
2017-12-24T11:25:54.762Z,5.58
2017-12-24T11:26:54.749Z,5.55
2017-12-24T11:27:54.732Z,5.52
2017-12-24T11:28:54.716Z,5.59
2017-12-24T11:29:54.711Z,5.73
2017-12-24T11:30:54.687Z,5.66
2017-12-24T11:31:54.677Z,5.73
2017-12-24T11:32:54.661Z,5.66
2017-12-24T11:33:54.642Z,5.66
2017-12-24T11:34:54.633Z,5.59
2017-12-24T11:35:54.619Z,5.56
2017-12-24T11:36:54.599Z,5.58
2017-12-24T11:37:54.582Z,5.62
2017-12-24T11:38:54.571Z,5.58
2017-12-24T11:39:54.553Z,5.58
2017-12-24T11:40:54.541Z,5.58
2017-12-24T11:41:54.519Z,5.45
2017-12-24T11:42:54.505Z,5.47
2017-12-24T11:43:54.493Z,5.42
2017-12-24T11:44:54.473Z,5.45
2017-12-24T11:45:54.465Z,5.59
2017-12-24T11:46:54.446Z,5.58
2017-12-24T11:47:54.438Z,5.51
2017-12-24T11:48:54.420Z,5.49
2017-12-24T11:49:54.407Z,5.56
2017-12-24T11:50:54.385Z,5.51
2017-12-24T11:51:54.379Z,5.65
2017-12-24T11:52:54.355Z,5.67
2017-12-24T11:53:54.346Z,5.63
2017-12-24T11:54:54.326Z,5.52
2017-12-24T11:55:54.315Z,5.58
2017-12-24T11:56:54.300Z,5.52
2017-12-24T11:57:54.280Z,5.52
2017-12-24T11:58:54.264Z,5.59
2017-12-24T11:59:54.253Z,5.52
2017-12-24T12:00:54.236Z,5.42
2017-12-24T12:01:54.221Z,5.51
2017-12-24T12:02:54.209Z,5.47
2017-12-24T12:03:54.199Z,5.51
2017-12-24T12:04:54.174Z,5.52
2017-12-24T12:05:54.165Z,5.45
2017-12-24T12:06:54.147Z,5.47
2017-12-24T12:07:54.128Z,5.41
2017-12-24T12:08:54.118Z,5.35
2017-12-24T12:09:54.102Z,5.35
2017-12-24T12:10:54.085Z,5.29
2017-12-24T12:11:54.068Z,5.23
2017-12-24T12:12:54.056Z,5.19
2017-12-24T12:13:54.037Z,5.24
2017-12-24T12:14:54.088Z,5.24
2017-12-24T12:15:54.006Z,5.30
2017-12-24T12:16:53.992Z,5.45
2017-12-24T12:17:53.976Z,5.56
2017-12-24T12:18:53.962Z,5.67
2017-12-24T12:19:53.952Z,5.58
2017-12-24T12:20:53.931Z,5.58
2017-12-24T12:21:53.922Z,5.48
2017-12-24T12:22:53.900Z,5.47
2017-12-24T12:23:53.892Z,5.48
2017-12-24T12:24:53.876Z,5.47
2017-12-24T12:25:53.853Z,5.42
2017-12-24T12:26:53.845Z,5.37
2017-12-24T12:27:53.825Z,5.29
2017-12-24T12:28:53.811Z,5.35
2017-12-24T12:29:53.802Z,5.30
2017-12-24T12:30:53.781Z,5.30
2017-12-24T12:31:53.764Z,5.30
2017-12-24T12:32:53.748Z,5.35
2017-12-24T12:33:53.795Z,5.38
2017-12-24T12:34:53.720Z,5.37
2017-12-24T12:35:53.704Z,5.33
2017-12-24T12:36:53.692Z,5.41
2017-12-24T12:37:53.672Z,5.55
2017-12-24T12:38:53.660Z,5.48
2017-12-24T12:39:53.643Z,5.52
2017-12-24T12:40:53.626Z,5.59
2017-12-24T12:41:53.613Z,5.58
2017-12-24T12:42:53.599Z,5.48
2017-12-24T12:43:53.589Z,5.45
2017-12-24T12:44:53.567Z,5.51
2017-12-24T12:45:53.551Z,5.48
2017-12-24T12:46:53.536Z,5.37
2017-12-24T12:47:53.521Z,5.41
2017-12-24T12:48:53.508Z,5.44
2017-12-24T12:49:53.492Z,5.37
2017-12-24T12:50:53.476Z,5.44
2017-12-24T12:51:53.462Z,5.42
2017-12-24T12:52:53.452Z,5.40
2017-12-24T12:53:53.439Z,5.45
2017-12-24T12:54:53.414Z,5.44
2017-12-24T12:55:53.406Z,5.55
2017-12-24T12:56:53.384Z,5.49
2017-12-24T12:57:53.374Z,5.58
2017-12-24T12:58:53.357Z,5.58
2017-12-24T12:59:53.346Z,5.55
2017-12-24T13:00:53.324Z,5.59
2017-12-24T13:01:53.314Z,5.60
2017-12-24T13:02:53.295Z,5.49
2017-12-24T13:03:53.282Z,5.51
2017-12-24T13:04:53.263Z,5.47
2017-12-24T13:05:53.247Z,5.62
2017-12-24T13:06:53.236Z,5.58
2017-12-24T13:07:53.224Z,5.58
2017-12-24T13:08:53.205Z,5.52
2017-12-24T13:09:53.187Z,5.55
2017-12-24T13:10:53.175Z,5.58
2017-12-24T13:11:53.158Z,5.62
2017-12-24T13:12:53.149Z,5.58
2017-12-24T13:13:53.131Z,5.55
2017-12-24T13:14:53.114Z,5.62
2017-12-24T13:15:53.096Z,5.48
2017-12-24T13:16:53.086Z,5.44
2017-12-24T13:17:53.073Z,5.55